Date,TemperatureHighF,TemperatureAvgF,TemperatureLowF,DewpointHighF,DewpointAvgF,DewpointLowF,HumidityHigh,HumidityAvg,HumidityLow,PressureMaxIn,PressureMinIn,WindSpeedMaxMPH,WindSpeedAvgMPH,GustSpeedMaxMPH,PrecipitationSumIn
2013-3-1,60,50,41,49,42,36,93,75,50,30.15,29.99,0,0,0,0.00
2013-3-2,54,43,34,38,34,30,94,71,54,30.22,30.09,0,0,0,0.00
2013-3-3,56,43,32,42,34,28,94,72,42,30.25,30.13,0,0,0,0.00
2013-3-4,66,54,38,61,51,38,98,88,71,30.16,29.97,0,0,0,0.00
2013-3-5,70,62,50,66,58,45,96,88,64,30.15,29.94,0,0,0,0.00
2013-3-6,64,51,42,45,39,36,95,65,39,30.28,30.15,0,0,0,0.00
2013-3-7,59,48,39,48,42,36,97,81,56,30.34,30.22,0,0,0,0.00
2013-3-8,67,54,40,54,47,39,98,81,49,30.30,30.18,0,0,0,0.00
2013-3-9,69,59,48,62,56,47,98,90,70,30.20,30.01,0,0,0,0.00
2013-3-10,73,67,63,68,64,61,96,92,84,30.03,29.89,0,0,0,0.00
2013-3-11,67,58,46,66,56,45,98,92,71,29.99,29.84,0,0,0,0.15
2013-3-12,69,54,42,48,45,40,98,74,42,30.18,29.98,0,0,0,0.00
2013-3-13,69,56,44,48,41,34,93,62,29,30.36,30.18,0,0,0,0.01
2013-3-14,63,52,41,51,39,32,93,62,33,30.44,30.29,0,0,0,0.00
2013-3-15,69,59,45,58,53,44,98,82,57,30.31,30.14,0,0,0,0.00
2013-3-16,73,65,53,66,61,52,98,87,73,30.14,29.98,0,0,0,0.00
2013-3-17,72,65,58,68,63,58,98,94,79,30.00,29.88,0,0,0,0.00
2013-3-18,77,70,64,73,68,63,98,95,89,29.90,29.78,0,0,0,0.00
2013-3-19,77,66,58,68,61,56,98,85,58,30.02,29.85,0,0,0,0.01
2013-3-20,70,59,47,58,46,40,95,65,40,30.10,29.95,0,0,0,0.01
2013-3-21,66,54,43,48,43,37,82,66,42,30.07,29.89,0,0,0,0.00
2013-3-22,67,63,55,62,57,45,93,81,60,29.90,29.82,0,0,0,0.00
2013-3-23,75,68,63,72,66,60,97,94,90,29.86,29.58,0,0,0,0.00
2013-3-24,78,67,50,69,60,39,98,79,49,29.94,29.56,0,0,0,0.00
2013-3-25,64,51,39,40,34,29,86,57,29,30.22,29.94,0,0,0,0.01
2013-3-26,61,48,37,37,33,31,79,58,36,30.36,30.22,0,0,0,0.00
2013-3-27,58,47,34,44,38,32,94,74,49,30.44,30.29,0,0,0,0.00
2013-3-28,66,54,40,51,45,39,98,76,49,30.35,30.25,0,0,0,0.00
2013-3-29,69,58,44,60,53,43,98,86,55,30.33,30.20,0,0,0,0.00
2013-3-30,74,64,54,67,61,53,99,90,75,30.20,30.03,0,0,0,0.00
2013-3-31,77,67,61,72,66,60,98,94,84,30.06,29.88,0,0,0,0.31